Orlando, FL (32818)

11:41 PM EDT on September 23, 2014 (GMT -0400)
Lake Rose | Change Station
CLOSE
Current Station
Personal Weather Station
Location: Orlando, FL
Elevation: 118 ft
Nearby Weather Stations

Elev 118 ft 28.54 °N, 81.50 °W | Updated 9 seconds ago

Partly Cloudy
Partly Cloudy
74.5 °F
Feels Like 74 °F
N
0.0
Wind Variable Wind from North
Gusts 0.0 mph

Today
High -- | Low -- °F
--% Chance of Precip.
Yesterday
High -- | Low -- °F
Precip. -- in
7:14 AM 7:21 PM
Waning Crescent, 0% visible
Pressure 30.05 in
Visibility 10.0 miles
Clouds Few 1000 ft
Heat Index 74 °F
Dew Point 71 °F
Humidity 88%
Rainfall 1.38 in
Snow Depth Not available.
UV 0 out of 12
Pollen 2.50 out of 12
Ozone Good
PM2.5 Good
Flu Activity Not available.
METAR KORL 240253Z AUTO 01004KT 10SM FEW010 23/22 A3004 RMK AO2 SLP176 60005 T02330222 53012 $

More Conditions Fewer Conditions

Pressure 30.05 in
Visibility 10.0 miles
Clouds Few 1000 ft
Heat Index 74 °F
Dew Point 71 °F
Humidity 88%
Rainfall 1.38 in
Snow Depth Not available.
UV 0 out of 12
Pollen 2.50 out of 12
Ozone Good
PM2.5 Good
Flu Activity Not available.
METAR KORL 240253Z AUTO 01004KT 10SM FEW010 23/22 A3004 RMK AO2 SLP176 60005 T02330222 53012 $

More Conditions Fewer Conditions

10-Day Weather Forecast

Almanac

Astronomy

Sep. 23, 2014 Rise Set
Actual Time 7:14 AM EDT 7:21 PM EDT
Civil Twilight 6:51 AM EDT 7:44 PM EDT
Nautical Twilight 6:23 AM EDT 8:12 PM EDT
Astronomical Twilight 5:56 AM EDT 8:39 PM EDT
Moon 6:38 AM EDT (9/23) 7:00 PM EDT (9/23)
Length of Visible Light 12h 53m
Length of Day
12h 06m
Tomorrow will be 1m 42s shorter.
Waning Crescent, 0% of the Moon is Illuminated
Today
Waning Crescent
Sep 24
New
Oct 1
First Quarter
Oct 8
Full
Oct 15
Last Quarter

Today's Extremes

State Highs State Lows

Community

WunderPhotos

Upload Photos

1,755,878 photos uploaded!

WunderBlogs® & News

Nearby

Air Quality

  Air Quality AQ Index Pollutant
Yesterday Good
OZONE
Yesterday Good
PM2.5
Current Good
PM2.5
Current Good
OZONE
Tuesday Good
OZONE
Wednesday Good
OZONE

Snow Depth

Station Depth Elevation
No new snow has been reported.

Earthquake Activity

City Distance Mag. Time & Date
No recent earthquake activity has been reported nearby.
Minimum magnitude displayed is 2.5.

Coastal Water Temperatures

Place Temperature
No Stations Reporting

Nearby Weather Stations